Time;durP1;ratioP1;P1;durP2;ratioP2;P2;SDS_P1;SDS_P2;PMS_P1;PMS_P2;Temp;Humidity;BMP_temperature;BMP_pressure;BME280_temperature;BME280_humidity;BME280_pressure;Samples;Min_cycle;Max_cycle;Signal;HPM_P1;HPM_P2
2022/02/08 00:01:21;;;;;;;23.60;15.83;;;6.40;99.90;;;;;;4984736;28;20463;-72
2022/02/08 00:03:48;;;;;;;15.47;14.07;;;6.30;99.90;;;;;;4984030;28;20543;-72
2022/02/08 00:06:33;;;;;;;18.60;14.87;;;6.30;99.90;;;;;;4979303;28;20469;-73
2022/02/08 00:09:00;;;;;;;19.97;15.57;;;6.40;99.90;;;;;;4977843;28;20470;-72
2022/02/08 00:11:28;;;;;;;16.97;14.63;;;6.50;99.90;;;;;;4983640;28;20574;-73
2022/02/08 00:13:55;;;;;;;18.43;14.60;;;6.40;99.90;;;;;;4982011;28;20546;-68
2022/02/08 00:16:22;;;;;;;16.70;14.97;;;6.40;99.90;;;;;;4983849;28;20474;-71
2022/02/08 00:18:49;;;;;;;17.07;15.10;;;6.40;99.90;;;;;;4978058;28;20474;-72
2022/02/08 00:21:16;;;;;;;17.87;16.03;;;6.40;99.90;;;;;;4981275;28;20472;-73
2022/02/08 00:23:43;;;;;;;16.43;14.47;;;6.40;99.90;;;;;;4976147;28;20935;-68
2022/02/08 00:26:11;;;;;;;16.57;14.73;;;6.30;99.90;;;;;;4983086;28;20487;-70
2022/02/08 00:28:39;;;;;;;16.70;14.90;;;6.30;99.90;;;;;;4979147;28;20451;-68
2022/02/08 00:31:07;;;;;;;17.87;14.20;;;6.20;99.90;;;;;;4980151;28;20467;-73
2022/02/08 00:33:34;;;;;;;15.03;13.07;;;6.30;99.90;;;;;;4979952;28;20508;-70
2022/02/08 00:36:01;;;;;;;18.80;13.40;;;6.20;99.90;;;;;;4974774;28;20465;-73
2022/02/08 00:38:28;;;;;;;17.07;14.10;;;6.10;99.90;;;;;;4980782;28;20554;-69
2022/02/08 00:40:58;;;;;;;15.67;13.73;;;6.00;99.90;;;;;;4977934;28;20483;-73
2022/02/08 00:43:30;;;;;;;21.67;13.57;;;6.00;99.90;;;;;;4980433;28;20483;-73
2022/02/08 00:46:02;;;;;;;16.90;12.83;;;6.00;99.90;;;;;;4989500;28;20464;-73
2022/02/08 00:48:37;;;;;;;15.80;12.73;;;6.00;99.90;;;;;;4976525;28;20967;-72
2022/02/08 00:51:04;;;;;;;16.63;14.20;;;5.90;99.90;;;;;;4982249;28;20585;-69
2022/02/08 00:53:31;;;;;;;23.87;13.20;;;5.90;99.90;;;;;;4981934;28;20461;-70
2022/02/08 00:55:58;;;;;;;16.63;15.07;;;5.80;99.90;;;;;;4979543;28;20942;-70
2022/02/08 00:58:25;;;;;;;23.20;13.90;;;5.80;99.90;;;;;;4976468;28;20526;-68
2022/02/08 01:00:53;;;;;;;23.80;14.23;;;5.80;99.90;;;;;;4975428;28;20456;-71
2022/02/08 01:03:21;;;;;;;15.10;13.80;;;5.70;99.90;;;;;;4988912;28;20506;-70
2022/02/08 01:05:53;;;;;;;18.00;13.83;;;5.70;99.90;;;;;;4978865;28;20468;-69
2022/02/08 01:08:22;;;;;;;16.80;14.77;;;5.70;99.90;;;;;;4981011;28;20460;-73
2022/02/08 01:10:49;;;;;;;21.30;14.30;;;5.70;99.90;;;;;;4981956;28;20468;-70
2022/02/08 01:13:16;;;;;;;17.63;14.23;;;5.70;99.90;;;;;;4973296;28;20580;-71
2022/02/08 01:15:44;;;;;;;16.60;14.90;;;5.60;99.90;;;;;;4984586;28;20474;-73
2022/02/08 01:18:11;;;;;;;15.20;13.77;;;5.60;99.90;;;;;;4974124;28;20476;-71
2022/02/08 01:20:40;;;;;;;15.97;14.37;;;5.60;99.90;;;;;;4981680;28;20480;-71
2022/02/08 01:23:10;;;;;;;15.20;13.87;;;5.50;99.90;;;;;;4981727;28;20500;-71
2022/02/08 01:25:43;;;;;;;17.90;13.97;;;5.60;99.90;;;;;;4979810;28;20501;-72
2022/02/08 01:28:19;;;;;;;16.60;14.80;;;5.50;99.90;;;;;;4977773;28;20473;-70
2022/02/08 01:30:57;;;;;;;14.50;13.30;;;5.50;99.90;;;;;;4980804;28;21215;-73
2022/02/08 01:36:33;;;;;;;21.53;16.00;;;5.50;99.90;;;;;;4978054;28;20836;-73
2022/02/08 01:39:08;;;;;;;21.20;18.17;;;5.60;99.90;;;;;;4977064;28;20459;-72
2022/02/08 01:41:52;;;;;;;20.30;17.33;;;5.50;99.90;;;;;;4972584;28;20516;-72
2022/02/08 01:44:28;;;;;;;18.77;17.47;;;5.60;99.90;;;;;;4979672;28;21019;-71
2022/02/08 01:47:03;;;;;;;17.50;16.13;;;5.60;99.90;;;;;;4982009;28;20467;-72
2022/02/08 01:49:37;;;;;;;18.20;16.57;;;5.60;99.90;;;;;;4981952;28;20529;-72
2022/02/08 01:52:07;;;;;;;17.63;16.10;;;5.60;99.90;;;;;;4980257;28;21015;-68
2022/02/08 01:54:34;;;;;;;19.43;17.37;;;5.50;99.90;;;;;;4980594;28;20465;-71
2022/02/08 01:57:01;;;;;;;18.27;16.33;;;5.60;99.90;;;;;;4978518;28;20459;-72
2022/02/08 01:59:28;;;;;;;17.23;15.90;;;5.60;99.90;;;;;;4980118;28;20489;-70
2022/02/08 02:01:55;;;;;;;17.90;16.50;;;5.60;99.90;;;;;;4974106;28;20465;-72
2022/02/08 02:04:22;;;;;;;18.27;16.60;;;5.70;99.90;;;;;;4977150;28;21025;-73
2022/02/08 02:06:50;;;;;;;19.47;17.80;;;5.80;99.90;;;;;;4981786;28;20977;-71
2022/02/08 02:09:18;;;;;;;15.97;14.87;;;5.80;99.90;;;;;;4980371;28;20458;-73
2022/02/08 02:11:46;;;;;;;17.70;16.20;;;5.80;99.90;;;;;;4979698;28;20486;-70
2022/02/08 02:14:12;;;;;;;19.20;17.13;;;5.80;99.90;;;;;;4981162;28;20477;-73
2022/02/08 02:16:52;;;;;;;17.63;15.97;;;5.90;99.90;;;;;;4984789;28;20476;-73
2022/02/08 02:19:23;;;;;;;18.13;16.43;;;5.90;99.90;;;;;;4976325;28;20462;-72
2022/02/08 02:21:51;;;;;;;16.90;15.40;;;5.90;99.90;;;;;;4977251;28;20470;-73
2022/02/08 02:24:19;;;;;;;16.87;15.73;;;5.90;99.90;;;;;;4979609;28;20575;-72
2022/02/08 02:26:46;;;;;;;19.77;17.80;;;6.00;99.90;;;;;;4976627;28;20605;-70
2022/02/08 02:29:15;;;;;;;20.30;18.27;;;6.00;99.90;;;;;;4981402;28;20468;-68
2022/02/08 02:31:42;;;;;;;17.80;16.40;;;6.00;99.90;;;;;;4982640;28;20465;-70
2022/02/08 02:34:10;;;;;;;19.87;18.00;;;5.90;99.90;;;;;;4973143;28;20853;-68
2022/02/08 02:36:40;;;;;;;20.83;18.23;;;5.90;99.90;;;;;;4976449;28;20474;-70
2022/02/08 02:39:07;;;;;;;19.63;18.00;;;6.00;99.90;;;;;;4977753;28;20512;-68
2022/02/08 02:41:40;;;;;;;18.93;17.10;;;6.00;99.90;;;;;;4981780;28;21133;-70
2022/02/08 02:44:09;;;;;;;19.57;17.80;;;6.10;99.90;;;;;;4975916;28;20505;-70
2022/02/08 02:46:36;;;;;;;20.07;18.20;;;6.10;99.90;;;;;;4984103;28;20522;-68
2022/02/08 02:49:04;;;;;;;19.67;17.90;;;6.10;99.90;;;;;;4979162;28;20559;-70
2022/02/08 02:51:31;;;;;;;20.07;18.47;;;6.20;99.90;;;;;;4978233;28;20460;-68
2022/02/08 02:53:59;;;;;;;19.87;18.07;;;6.20;99.90;;;;;;4977900;28;21016;-69
2022/02/08 02:56:26;;;;;;;19.03;17.43;;;6.20;99.90;;;;;;4978631;28;20477;-70
2022/02/08 02:59:01;;;;;;;19.30;17.30;;;6.20;99.90;;;;;;4976279;28;20459;-69
2022/02/08 03:01:33;;;;;;;18.93;17.53;;;6.20;99.90;;;;;;4981684;28;20472;-70
2022/02/08 03:04:22;;;;;;;19.50;18.07;;;6.20;99.90;;;;;;4974407;28;20579;-68
2022/02/08 03:20:38;;;;;;;21.30;19.00;;;6.50;99.90;;;;;;4972402;28;20973;-70
2022/02/08 03:23:05;;;;;;;19.87;18.27;;;6.50;99.90;;;;;;4978794;28;20530;-69
2022/02/08 03:25:31;;;;;;;20.10;18.70;;;6.50;99.90;;;;;;4976760;28;20467;-71
2022/02/08 03:27:58;;;;;;;22.60;20.53;;;6.60;99.90;;;;;;4978922;28;20474;-69
2022/02/08 03:30:28;;;;;;;22.37;20.53;;;6.60;99.90;;;;;;4973701;28;20839;-69
2022/02/08 03:32:55;;;;;;;20.63;19.07;;;6.60;99.90;;;;;;4974265;28;20940;-70
2022/02/08 03:35:22;;;;;;;22.07;19.97;;;6.60;99.90;;;;;;4984252;28;20497;-71
2022/02/08 03:37:57;;;;;;;21.30;19.60;;;6.60;99.90;;;;;;4980066;28;21050;-70
2022/02/08 03:40:36;;;;;;;22.43;20.43;;;6.60;99.90;;;;;;4979800;28;20762;-70
2022/02/08 03:43:14;;;;;;;23.07;21.10;;;6.60;99.90;;;;;;4978090;28;20475;-70
2022/02/08 03:45:44;;;;;;;23.77;21.50;;;6.60;99.90;;;;;;4987925;28;20831;-69
2022/02/08 03:48:14;;;;;;;23.27;21.10;;;6.60;99.90;;;;;;4981001;28;20455;-70
2022/02/08 03:50:43;;;;;;;23.70;21.60;;;6.60;99.90;;;;;;4979781;28;20468;-70
2022/02/08 03:53:10;;;;;;;24.27;22.03;;;6.60;99.90;;;;;;4982559;28;20465;-70
2022/02/08 03:55:37;;;;;;;25.20;22.80;;;6.70;99.90;;;;;;4982286;28;20977;-68
2022/02/08 03:58:04;;;;;;;23.10;20.50;;;6.60;99.90;;;;;;4982974;28;20454;-69
2022/02/08 04:00:38;;;;;;;23.93;22.13;;;6.60;99.90;;;;;;4975915;28;20473;-71
2022/02/08 04:03:07;;;;;;;24.13;21.87;;;6.70;99.90;;;;;;4978719;28;20540;-70
2022/02/08 04:05:42;;;;;;;25.60;23.20;;;6.70;99.90;;;;;;4983353;28;20602;-70
2022/02/08 04:08:12;;;;;;;25.53;23.20;;;6.70;99.90;;;;;;4980475;28;20545;-69
2022/02/08 04:10:41;;;;;;;24.50;22.43;;;6.80;99.90;;;;;;4984259;28;20506;-71
2022/02/08 04:13:13;;;;;;;22.93;21.07;;;6.70;99.90;;;;;;4976618;28;20488;-69
2022/02/08 04:16:00;;;;;;;20.00;18.50;;;6.80;99.90;;;;;;4985368;28;20732;-70
2022/02/08 04:32:25;;;;;;;23.80;22.07;;;6.80;99.90;;;;;;4979492;28;20480;-68
2022/02/08 04:35:24;;;;;;;24.83;22.93;;;6.70;99.90;;;;;;4982136;28;20502;-69
2022/02/08 04:38:07;;;;;;;25.10;23.30;;;6.80;99.90;;;;;;4980327;28;20933;-70
2022/02/08 04:40:49;;;;;;;28.77;26.70;;;6.80;99.90;;;;;;4981593;28;20471;-70
2022/02/08 04:43:32;;;;;;;31.10;28.43;;;6.80;99.90;;;;;;4976377;28;20565;-69
2022/02/08 04:46:04;;;;;;;33.83;30.90;;;6.80;99.90;;;;;;4986099;28;21002;-69
2022/02/08 04:51:22;;;;;;;31.87;29.37;;;6.90;99.90;;;;;;4977776;28;20473;-70
2022/02/08 04:53:58;;;;;;;34.40;31.80;;;6.80;99.90;;;;;;4976050;28;20552;-71
2022/02/08 04:56:37;;;;;;;36.10;33.10;;;6.90;99.90;;;;;;4978762;28;20833;-70
2022/02/08 04:59:18;;;;;;;32.73;30.20;;;6.90;99.90;;;;;;4969887;28;20483;-71
2022/02/08 05:02:03;;;;;;;34.07;31.23;;;6.90;99.90;;;;;;4955131;28;20490;-71
2022/02/08 05:35:28;;;;;;;37.10;34.10;;;7.10;99.90;;;;;;4956840;28;20494;-70
2022/02/08 05:43:47;;;;;;;38.33;35.23;;;7.20;99.90;;;;;;4920621;28;20474;-71
2022/02/08 05:49:12;;;;;;;37.17;34.10;;;7.10;99.90;;;;;;4933950;28;20886;-70
2022/02/08 05:54:28;;;;;;;38.87;35.67;;;7.10;99.90;;;;;;4936059;28;20469;-70
2022/02/08 05:56:57;;;;;;;40.40;36.70;;;7.20;99.90;;;;;;4954912;28;20467;-71
2022/02/08 05:59:24;;;;;;;39.00;35.57;;;7.20;99.90;;;;;;4955498;28;20848;-71
2022/02/08 06:01:51;;;;;;;38.57;35.37;;;7.20;99.90;;;;;;4957117;28;21077;-70
2022/02/08 06:04:18;;;;;;;37.33;34.40;;;7.20;99.90;;;;;;4956471;28;20497;-72
2022/02/08 06:06:45;;;;;;;37.23;34.27;;;7.20;99.90;;;;;;4955803;28;20474;-71
2022/02/08 06:09:12;;;;;;;34.50;31.90;;;7.30;99.90;;;;;;4955661;28;20474;-72
2022/02/08 06:11:40;;;;;;;35.50;32.30;;;7.20;99.90;;;;;;4957638;28;20521;-72
2022/02/08 06:14:09;;;;;;;37.50;34.23;;;7.30;99.90;;;;;;4956435;28;20485;-71
2022/02/08 06:16:36;;;;;;;36.33;33.23;;;7.30;99.90;;;;;;4956456;28;20518;-72
2022/02/08 06:19:05;;;;;;;34.97;32.30;;;7.30;99.90;;;;;;4955815;28;20989;-72
2022/02/08 06:21:33;;;;;;;36.87;33.53;;;7.40;99.90;;;;;;4956368;28;22302;-71
2022/02/08 06:24:00;;;;;;;36.37;32.90;;;7.40;99.90;;;;;;4957188;28;20498;-70
2022/02/08 06:26:28;;;;;;;36.07;32.43;;;7.50;99.90;;;;;;4956706;28;20908;-71
2022/02/08 06:29:05;;;;;;;36.13;33.23;;;7.40;99.90;;;;;;4956332;28;20467;-71
2022/02/08 06:31:33;;;;;;;36.67;33.73;;;7.40;99.90;;;;;;4956705;28;20991;-71
2022/02/08 06:33:59;;;;;;;37.43;34.13;;;7.50;99.90;;;;;;4956770;28;20494;-71
2022/02/08 06:36:26;;;;;;;36.83;33.40;;;7.50;99.90;;;;;;4956098;28;21062;-70
2022/02/08 06:38:53;;;;;;;35.43;32.63;;;7.50;99.90;;;;;;4956083;28;20477;-70
2022/02/08 06:41:20;;;;;;;34.83;31.27;;;7.50;99.90;;;;;;4956530;28;20470;-72
2022/02/08 06:43:47;;;;;;;35.77;32.93;;;7.50;99.90;;;;;;4956107;28;20861;-71
2022/02/08 06:46:14;;;;;;;35.17;32.27;;;7.50;99.90;;;;;;4954858;28;20882;-72
2022/02/08 06:48:43;;;;;;;34.90;32.07;;;7.50;99.90;;;;;;4954692;28;21601;-71
2022/02/08 06:51:10;;;;;;;34.17;31.60;;;7.50;99.90;;;;;;4957512;28;20554;-71
2022/02/08 06:53:37;;;;;;;32.80;29.93;;;7.60;99.90;;;;;;4980607;28;20489;-71
2022/02/08 06:56:06;;;;;;;34.27;31.50;;;7.50;99.90;;;;;;4955555;28;20969;-71
2022/02/08 06:58:46;;;;;;;33.23;30.20;;;7.60;99.90;;;;;;4953180;28;20638;-72
2022/02/08 07:01:13;;;;;;;32.67;30.00;;;7.60;99.90;;;;;;4954290;28;20470;-73
2022/02/08 07:03:46;;;;;;;32.60;29.80;;;7.60;99.90;;;;;;4954143;28;20478;-72
2022/02/08 07:06:12;;;;;;;30.43;28.10;;;7.60;99.90;;;;;;4954144;28;20824;-71
2022/02/08 07:08:39;;;;;;;31.03;28.70;;;7.60;99.90;;;;;;4953047;28;20465;-71
2022/02/08 07:11:14;;;;;;;32.93;29.70;;;7.70;99.90;;;;;;4953716;28;20538;-71
2022/02/08 07:13:42;;;;;;;31.23;28.90;;;7.70;99.90;;;;;;4954455;28;20466;-72
2022/02/08 07:16:10;;;;;;;32.50;29.80;;;7.70;99.90;;;;;;4952615;28;20811;-72
2022/02/08 07:18:36;;;;;;;33.97;30.60;;;7.70;99.90;;;;;;4953714;28;20960;-72
2022/02/08 07:21:05;;;;;;;32.93;29.60;;;7.70;99.90;;;;;;4953854;28;20465;-72
2022/02/08 07:23:32;;;;;;;30.23;27.70;;;7.80;99.90;;;;;;4953342;28;20467;-71
2022/02/08 07:25:59;;;;;;;31.17;28.37;;;7.80;99.90;;;;;;4953734;28;20492;-72
2022/02/08 07:28:26;;;;;;;32.60;29.90;;;7.80;99.90;;;;;;4953855;28;20812;-73
2022/02/08 07:31:00;;;;;;;35.37;32.10;;;7.80;99.90;;;;;;4955021;28;20504;-73
2022/02/08 07:33:27;;;;;;;32.20;29.40;;;7.90;99.90;;;;;;4953248;28;20901;-72
2022/02/08 07:36:02;;;;;;;32.37;29.47;;;7.80;99.90;;;;;;4951884;28;20477;-72
2022/02/08 07:38:35;;;;;;;34.93;31.83;;;7.90;99.90;;;;;;4950726;28;20465;-72
2022/02/08 07:43:49;;;;;;;34.70;31.30;;;7.90;99.90;;;;;;4975505;28;20508;-71
2022/02/08 07:46:16;;;;;;;33.00;30.40;;;7.90;99.90;;;;;;4969629;28;20928;-71
2022/02/08 07:48:42;;;;;;;34.70;31.60;;;8.00;99.90;;;;;;4948821;28;20549;-71
2022/02/08 07:51:13;;;;;;;34.13;31.17;;;8.10;99.90;;;;;;4948934;28;20468;-72
2022/02/08 07:53:41;;;;;;;34.67;31.63;;;8.10;99.90;;;;;;4949525;28;20582;-72
2022/02/08 07:56:08;;;;;;;34.20;30.73;;;8.10;99.90;;;;;;4949121;28;20476;-71
2022/02/08 07:58:35;;;;;;;32.53;29.83;;;8.20;99.90;;;;;;4948679;28;20473;-72
2022/02/08 08:01:07;;;;;;;32.57;29.60;;;8.10;99.90;;;;;;4949524;28;20830;-71
2022/02/08 08:03:36;;;;;;;28.87;26.47;;;8.10;99.90;;;;;;4949242;28;20559;-72
2022/02/08 08:06:04;;;;;;;34.67;30.57;;;8.20;99.90;;;;;;4949858;28;20505;-71
2022/02/08 08:08:31;;;;;;;31.67;29.07;;;8.20;99.90;;;;;;4948290;28;21006;-71
2022/02/08 08:11:00;;;;;;;31.53;28.60;;;8.20;99.90;;;;;;4948985;28;23025;-72
2022/02/08 08:13:28;;;;;;;30.70;28.00;;;8.30;99.90;;;;;;4948705;28;20481;-71
2022/02/08 08:16:01;;;;;;;30.20;27.03;;;8.30;99.90;;;;;;4949053;28;20471;-71
2022/02/08 08:18:44;;;;;;;30.60;27.40;;;8.30;99.90;;;;;;4948607;28;20471;-71
2022/02/08 08:21:11;;;;;;;29.00;26.17;;;8.40;99.90;;;;;;4952482;28;20470;-72
2022/02/08 08:23:38;;;;;;;28.20;25.67;;;8.30;99.90;;;;;;4947520;28;20477;-71
2022/02/08 08:26:06;;;;;;;27.73;25.30;;;8.40;99.90;;;;;;4955095;28;20486;-71
2022/02/08 08:28:33;;;;;;;27.30;24.50;;;8.40;99.90;;;;;;4955590;28;21063;-72
2022/02/08 08:30:59;;;;;;;26.80;24.43;;;8.40;99.90;;;;;;4955489;28;20503;-71
2022/02/08 08:33:28;;;;;;;27.30;24.47;;;8.50;99.90;;;;;;4953014;28;20492;-71
2022/02/08 08:35:54;;;;;;;29.97;24.70;;;8.50;99.90;;;;;;4952381;28;20586;-70
2022/02/08 08:38:23;;;;;;;29.07;26.40;;;8.50;99.90;;;;;;4950941;28;20835;-71
2022/02/08 08:40:58;;;;;;;26.97;24.40;;;8.60;99.90;;;;;;4956074;28;20507;-71
2022/02/08 08:43:43;;;;;;;26.50;24.40;;;8.60;99.90;;;;;;4978346;28;20468;-70
2022/02/08 08:49:24;;;;;;;24.57;22.43;;;8.70;99.90;;;;;;4951514;28;20989;-71
2022/02/08 08:51:53;;;;;;;28.20;24.50;;;8.70;99.90;;;;;;4952441;28;20481;-70
2022/02/08 08:54:20;;;;;;;24.93;22.73;;;8.70;99.90;;;;;;4952327;28;20836;-71
2022/02/08 08:56:49;;;;;;;25.90;23.47;;;8.80;99.90;;;;;;4952326;28;21087;-73
2022/02/08 08:59:19;;;;;;;24.50;22.40;;;8.90;99.90;;;;;;4952737;28;20475;-71
2022/02/08 09:01:46;;;;;;;27.80;25.13;;;8.90;99.90;;;;;;4951601;28;21011;-69
2022/02/08 09:04:15;;;;;;;24.80;22.37;;;9.00;99.90;;;;;;4951640;28;20473;-70
2022/02/08 09:06:43;;;;;;;24.00;22.00;;;9.00;99.90;;;;;;4951375;28;20511;-70
2022/02/08 09:09:13;;;;;;;23.90;21.73;;;9.00;99.90;;;;;;4951525;28;20469;-70
2022/02/08 09:11:52;;;;;;;23.33;20.90;;;9.00;99.90;;;;;;4951525;28;20950;-71
2022/02/08 09:14:26;;;;;;;24.67;22.60;;;9.00;99.90;;;;;;4951630;28;20605;-72
2022/02/08 09:17:03;;;;;;;24.27;22.20;;;9.10;99.90;;;;;;4951747;28;20482;-71
2022/02/08 09:19:47;;;;;;;25.07;22.73;;;9.10;99.90;;;;;;4952080;28;20687;-71
2022/02/08 09:22:34;;;;;;;22.83;20.93;;;9.20;99.90;;;;;;4951691;28;20801;-72
2022/02/08 09:25:27;;;;;;;23.73;21.40;;;9.20;99.90;;;;;;4950966;28;20503;-71
2022/02/08 09:28:08;;;;;;;23.23;21.03;;;9.20;99.90;;;;;;4952183;28;20472;-72
2022/02/08 09:30:40;;;;;;;22.07;20.37;;;9.30;99.90;;;;;;4950367;28;20609;-70
2022/02/08 09:33:07;;;;;;;22.93;21.13;;;9.40;99.90;;;;;;4950482;28;20497;-71
2022/02/08 09:35:34;;;;;;;23.20;21.10;;;9.30;99.90;;;;;;4948865;28;20474;-70
2022/02/08 09:38:01;;;;;;;22.13;20.07;;;9.40;99.90;;;;;;4949814;28;20678;-72
2022/02/08 09:40:27;;;;;;;23.30;21.10;;;9.40;99.90;;;;;;4949820;28;20475;-71
2022/02/08 09:42:56;;;;;;;22.63;20.73;;;9.50;99.90;;;;;;4950735;28;21189;-70
2022/02/08 09:45:24;;;;;;;20.37;18.87;;;9.50;99.90;;;;;;4950087;28;21383;-71
2022/02/08 09:47:58;;;;;;;22.00;20.20;;;9.50;99.90;;;;;;4950365;28;20467;-71
2022/02/08 09:50:27;;;;;;;19.73;18.13;;;9.50;99.90;;;;;;4950820;28;20497;-71
2022/02/08 09:52:57;;;;;;;17.70;16.40;;;9.50;99.90;;;;;;4951165;28;21439;-71
2022/02/08 09:55:26;;;;;;;21.40;19.70;;;9.40;99.90;;;;;;4950463;28;21042;-71
2022/02/08 09:57:53;;;;;;;19.77;18.30;;;9.50;99.90;;;;;;4950927;28;20938;-72
2022/02/08 10:00:21;;;;;;;19.93;18.43;;;9.60;99.90;;;;;;4950585;28;20474;-71
2022/02/08 10:02:48;;;;;;;19.53;18.00;;;9.60;99.90;;;;;;4951218;28;20449;-72
2022/02/08 10:05:17;;;;;;;20.10;18.40;;;9.60;99.90;;;;;;4950798;28;20495;-71
2022/02/08 10:07:43;;;;;;;19.67;18.17;;;9.70;99.90;;;;;;4951089;28;20477;-71
2022/02/08 10:10:23;;;;;;;19.40;17.90;;;9.60;99.90;;;;;;4950853;28;20475;-71
2022/02/08 10:13:13;;;;;;;17.73;16.63;;;9.70;99.90;;;;;;4950588;28;20960;-73
2022/02/08 10:24:10;;;;;;;17.00;15.87;;;9.70;99.90;;;;;;4951208;28;22506;-71
2022/02/08 10:26:42;;;;;;;18.20;16.70;;;9.70;99.90;;;;;;4949671;28;21046;-72
2022/02/08 10:29:21;;;;;;;17.60;16.47;;;9.70;99.90;;;;;;4949844;28;20473;-71
2022/02/08 10:37:43;;;;;;;16.20;15.20;;;9.90;99.90;;;;;;4951160;28;20862;-71
2022/02/08 10:40:12;;;;;;;18.87;15.17;;;10.00;99.90;;;;;;4951386;28;20483;-70
2022/02/08 10:42:42;;;;;;;18.23;16.67;;;10.00;99.90;;;;;;4948988;28;20728;-71
2022/02/08 10:45:20;;;;;;;15.83;14.90;;;10.00;99.90;;;;;;4949705;28;20478;-70
2022/02/08 10:47:53;;;;;;;16.80;15.70;;;10.00;99.90;;;;;;4950204;28;21000;-71
2022/02/08 10:50:20;;;;;;;16.03;14.40;;;10.00;99.90;;;;;;4950592;28;20466;-71
2022/02/08 10:52:48;;;;;;;15.70;14.80;;;10.10;99.90;;;;;;4949879;28;20949;-71
2022/02/08 10:55:30;;;;;;;16.00;14.90;;;10.10;99.90;;;;;;4950105;28;21114;-70
2022/02/08 10:58:08;;;;;;;16.40;15.50;;;10.20;99.90;;;;;;4950282;28;20565;-70
2022/02/08 11:00:39;;;;;;;17.13;15.83;;;10.20;99.90;;;;;;4950129;28;20594;-72
2022/02/08 11:03:11;;;;;;;17.00;15.20;;;10.00;99.90;;;;;;4950239;28;20961;-70
2022/02/08 11:05:46;;;;;;;15.70;14.80;;;10.20;99.90;;;;;;4949791;28;20773;-71
2022/02/08 11:08:36;;;;;;;15.87;14.83;;;10.30;99.90;;;;;;4950332;28;20807;-71
2022/02/08 11:14:11;;;;;;;16.30;15.13;;;10.50;99.90;;;;;;4936250;28;20479;-71
2022/02/08 11:17:04;;;;;;;17.13;15.90;;;10.50;99.90;;;;;;4949877;28;20483;-72
2022/02/08 11:19:46;;;;;;;15.73;14.73;;;10.60;99.90;;;;;;4948604;28;21159;-73
2022/02/08 11:22:25;;;;;;;15.00;14.20;;;10.50;99.90;;;;;;4949966;28;20471;-72
2022/02/08 11:25:02;;;;;;;16.47;15.40;;;10.50;99.90;;;;;;4950452;28;20474;-71
2022/02/08 11:27:39;;;;;;;16.07;14.77;;;10.30;99.90;;;;;;4970414;28;20494;-73
2022/02/08 11:30:12;;;;;;;16.10;14.87;;;10.40;99.90;;;;;;4966784;28;20527;-71
2022/02/08 11:32:52;;;;;;;14.83;14.03;;;10.60;99.90;;;;;;4948456;28;20884;-72
2022/02/08 11:44:44;;;;;;;15.50;14.60;;;10.70;99.90;;;;;;4948584;28;20463;-71
2022/02/08 11:47:21;;;;;;;14.90;13.90;;;10.60;99.90;;;;;;4949540;28;20745;-73
2022/02/08 11:50:04;;;;;;;14.90;13.97;;;10.70;99.90;;;;;;4949213;28;20479;-70
2022/02/08 11:52:48;;;;;;;15.20;14.30;;;10.70;99.90;;;;;;4949760;28;21176;-71
2022/02/08 11:58:21;;;;;;;15.63;14.37;;;10.80;99.90;;;;;;4936761;28;20471;-71
2022/02/08 12:01:02;;;;;;;15.23;14.43;;;10.90;99.90;;;;;;4951768;28;20476;-71
2022/02/08 12:09:10;;;;;;;15.50;14.10;;;11.00;99.90;;;;;;4952475;28;20462;-71
2022/02/08 12:11:58;;;;;;;15.20;14.20;;;11.10;99.90;;;;;;4952184;28;20537;-72
2022/02/08 12:28:54;;;;;;;14.90;13.90;;;11.10;99.90;;;;;;4952337;28;20469;-72
2022/02/08 12:34:06;;;;;;;14.63;13.83;;;11.30;99.90;;;;;;4967578;28;20570;-70
2022/02/08 12:39:37;;;;;;;14.90;14.00;;;11.20;99.90;;;;;;4952315;28;20550;-70
2022/02/08 12:51:25;;;;;;;16.77;14.90;;;11.30;99.90;;;;;;4951458;28;21004;-70
2022/02/08 12:53:54;;;;;;;15.67;14.47;;;11.40;99.90;;;;;;4951430;28;20577;-72
2022/02/08 12:56:32;;;;;;;16.23;14.83;;;11.40;99.90;;;;;;4952202;28;20488;-69
2022/02/08 12:59:12;;;;;;;15.43;14.43;;;11.40;99.90;;;;;;4951585;28;20470;-73
2022/02/08 13:02:07;;;;;;;16.17;14.70;;;11.40;99.90;;;;;;4951906;28;20470;-73
2022/02/08 13:04:49;;;;;;;16.03;14.97;;;11.50;99.90;;;;;;4952147;28;20462;-70
2022/02/08 13:32:51;;;;;;;16.40;15.40;;;11.70;99.90;;;;;;4982339;28;20922;-69
2022/02/08 14:05:45;;;;;;;16.43;15.27;;;11.80;99.90;;;;;;4949522;28;20456;-70
2022/02/08 14:08:21;;;;;;;16.60;15.53;;;11.70;99.90;;;;;;4950919;28;20706;-71
2022/02/08 14:11:11;;;;;;;16.70;15.70;;;11.90;99.90;;;;;;4951114;28;20467;-72
2022/02/08 14:13:53;;;;;;;16.47;15.60;;;11.80;99.90;;;;;;4950571;28;20488;-71
2022/02/08 14:16:36;;;;;;;16.90;15.73;;;11.90;99.90;;;;;;4950214;28;20467;-72
2022/02/08 14:19:24;;;;;;;16.67;15.57;;;12.00;99.90;;;;;;4951010;28;20532;-71
2022/02/08 14:21:58;;;;;;;16.70;15.80;;;12.00;99.90;;;;;;4950700;28;20513;-72
2022/02/08 14:24:35;;;;;;;16.93;15.93;;;12.10;99.90;;;;;;4950168;28;20865;-73
2022/02/08 14:29:51;;;;;;;16.83;15.83;;;11.80;99.90;;;;;;4950327;28;20504;-71
2022/02/08 14:32:30;;;;;;;15.07;14.27;;;12.00;99.90;;;;;;4950441;28;20494;-72
2022/02/08 15:10:40;;;;;;;16.23;15.23;;;11.50;99.90;;;;;;4947265;28;21078;-72
2022/02/08 15:13:08;;;;;;;16.70;15.80;;;11.40;99.90;;;;;;4950110;28;20586;-73
2022/02/08 15:15:49;;;;;;;16.03;15.23;;;11.30;99.90;;;;;;4950505;28;20463;-70
2022/02/08 15:18:16;;;;;;;15.63;14.83;;;11.30;99.90;;;;;;4950065;28;21420;-71
2022/02/08 15:20:43;;;;;;;16.00;15.10;;;11.20;99.90;;;;;;4949820;28;21031;-71
2022/02/08 15:23:11;;;;;;;16.37;15.47;;;11.20;99.90;;;;;;4949917;28;21482;-73
2022/02/08 15:25:38;;;;;;;15.97;15.07;;;11.30;99.90;;;;;;4950453;28;20467;-71
2022/02/08 15:28:05;;;;;;;16.43;14.90;;;11.20;99.90;;;;;;4950080;28;20512;-71
2022/02/08 15:30:34;;;;;;;15.20;14.30;;;11.10;99.90;;;;;;4953195;28;20598;-71
2022/02/08 15:33:07;;;;;;;15.17;14.23;;;11.10;99.90;;;;;;4953018;28;20547;-71
2022/02/08 15:35:34;;;;;;;15.30;14.40;;;11.10;99.90;;;;;;4953746;28;20889;-71
2022/02/08 15:38:02;;;;;;;16.27;15.20;;;11.00;99.90;;;;;;4952769;28;20564;-71
2022/02/08 15:40:28;;;;;;;15.70;14.40;;;11.10;99.90;;;;;;4952864;28;20839;-71
2022/02/08 15:42:55;;;;;;;16.00;15.00;;;11.10;99.90;;;;;;4953265;28;20455;-72
2022/02/08 15:45:26;;;;;;;15.10;14.40;;;10.90;99.90;;;;;;4953345;28;20500;-71
2022/02/08 15:47:55;;;;;;;14.80;14.00;;;10.90;99.90;;;;;;4953211;28;20502;-71
2022/02/08 15:50:30;;;;;;;14.70;13.90;;;10.80;99.90;;;;;;4954096;28;20470;-72
2022/02/08 15:53:25;;;;;;;15.50;14.60;;;10.70;99.90;;;;;;4952641;28;21043;-72
2022/02/08 15:56:08;;;;;;;15.23;14.40;;;10.70;99.90;;;;;;4977760;28;20461;-74
2022/02/08 16:01:28;;;;;;;16.20;15.30;;;10.60;99.90;;;;;;4953683;28;20469;-72
2022/02/08 16:07:01;;;;;;;14.80;14.10;;;10.60;99.90;;;;;;4954068;28;20525;-71
2022/02/08 16:09:33;;;;;;;14.60;13.83;;;10.50;99.90;;;;;;4954375;28;20473;-71
2022/02/08 16:15:01;;;;;;;14.40;13.60;;;10.50;99.90;;;;;;4954337;28;20901;-71
2022/02/08 16:17:35;;;;;;;15.13;14.27;;;10.50;99.90;;;;;;4953774;28;20847;-71
2022/02/08 16:20:16;;;;;;;14.87;14.07;;;10.50;99.90;;;;;;4954445;28;20967;-74
2022/02/08 16:23:27;;;;;;;18.23;16.90;;;10.50;99.90;;;;;;4953851;28;21023;-71
2022/02/08 16:26:03;;;;;;;15.20;13.97;;;10.50;99.90;;;;;;4953621;28;21053;-72
2022/02/08 16:28:49;;;;;;;14.40;13.60;;;10.40;99.90;;;;;;4953876;28;20508;-73
2022/02/08 16:53:10;;;;;;;15.27;13.70;;;10.30;99.90;;;;;;4964957;28;21050;-72
2022/02/08 16:55:51;;;;;;;14.80;14.00;;;10.20;99.90;;;;;;4953322;28;20468;-72
2022/02/08 16:58:27;;;;;;;14.20;13.40;;;10.30;99.90;;;;;;4952990;28;20477;-71
2022/02/08 17:00:59;;;;;;;14.97;13.40;;;10.20;99.90;;;;;;4952811;28;20450;-71
2022/02/08 17:03:30;;;;;;;13.13;12.50;;;10.20;99.90;;;;;;4953504;28;20931;-71
2022/02/08 17:05:57;;;;;;;14.60;13.60;;;10.20;99.90;;;;;;4953360;28;21104;-73
2022/02/08 17:08:26;;;;;;;13.90;13.10;;;10.20;99.90;;;;;;4953180;28;20849;-71
2022/02/08 17:10:58;;;;;;;13.93;12.97;;;10.00;99.90;;;;;;4953504;28;20503;-71
2022/02/08 17:13:40;;;;;;;14.63;13.73;;;10.00;99.90;;;;;;4952951;28;21060;-71
2022/02/08 17:16:16;;;;;;;14.50;13.70;;;10.00;99.90;;;;;;4953210;28;20461;-71
2022/02/08 17:46:11;;;;;;;13.43;12.63;;;9.70;99.90;;;;;;4951743;28;20473;-71
2022/02/08 17:48:37;;;;;;;13.53;12.83;;;9.60;99.90;;;;;;4952455;28;20496;-72
2022/02/08 17:51:04;;;;;;;12.47;11.87;;;9.50;99.90;;;;;;4950945;28;20462;-71
2022/02/08 17:53:31;;;;;;;13.60;12.87;;;9.50;99.90;;;;;;4951769;28;20478;-71
2022/02/08 17:55:58;;;;;;;12.83;12.07;;;9.50;99.90;;;;;;4952311;28;20484;-71